Time;durP1;ratioP1;P1;durP2;ratioP2;P2;SDS_P1;SDS_P2;PMS_P1;PMS_P2;Temp;Humidity;BMP_temperature;BMP_pressure;BME280_temperature;BME280_humidity;BME280_pressure;Samples;Min_cycle;Max_cycle;Signal;HPM_P1;HPM_P2
2023/01/13 00:00:44;;;;;;;37.83;4.95;;;;;;;17.87;100.00;100161.22;5061011;28;20278;-53
2023/01/13 00:03:10;;;;;;;33.03;4.10;;;;;;;17.69;100.00;100163.28;5058887;28;20033;-56
2023/01/13 00:05:36;;;;;;;;;;;;;;;17.49;100.00;100161.22;5062524;28;20040;-55
2023/01/13 00:08:04;;;;;;;38.50;6.27;;;;;;;17.10;100.00;100154.13;5060434;28;19912;-55
2023/01/13 00:10:29;;;;;;;36.23;4.80;;;;;;;17.17;100.00;100167.44;5066573;28;20293;-55
2023/01/13 00:12:55;;;;;;;31.87;4.63;;;;;;;16.65;100.00;100166.91;5066313;28;20270;-54
2023/01/13 00:15:20;;;;;;;29.95;4.28;;;;;;;16.88;100.00;100148.78;5062482;28;20033;-56
2023/01/13 00:17:47;;;;;;;32.20;4.70;;;;;;;17.49;100.00;100153.09;5059443;28;20072;-52
2023/01/13 00:20:13;;;;;;;40.77;5.93;;;;;;;16.94;100.00;100169.34;5059964;28;20037;-51
2023/01/13 00:22:39;;;;;;;35.80;5.03;;;;;;;16.47;100.00;100166.16;5063332;28;20270;-52
2023/01/13 00:25:05;;;;;;;26.03;4.80;;;;;;;16.22;100.00;100163.13;5060139;28;20041;-55
2023/01/13 00:27:31;;;;;;;40.95;6.18;;;;;;;16.31;100.00;100148.94;5061010;28;20029;-55
2023/01/13 00:29:57;;;;;;;28.98;5.18;;;;;;;16.25;100.00;100158.03;5059547;28;20065;-50
2023/01/13 00:32:22;;;;;;;27.17;5.25;;;;;;;16.17;100.00;100161.16;5066063;28;20128;-54
2023/01/13 00:34:48;;;;;;;26.65;3.75;;;;;;;15.86;100.00;100158.81;5062639;28;20033;-55
2023/01/13 00:37:14;;;;;;;41.87;4.93;;;;;;;15.90;100.00;100172.66;5057402;28;20049;-55
2023/01/13 00:39:40;;;;;;;37.80;4.67;;;;;;;16.48;100.00;100153.44;5058231;28;20313;-55
2023/01/13 00:44:50;;;;;;;36.60;5.23;;;;;;;16.68;100.00;100169.09;5057596;28;20037;-52
2023/01/13 00:47:17;;;;;;;29.73;4.15;;;;;;;16.41;100.00;100172.56;5064043;28;20630;-55
2023/01/13 00:49:43;;;;;;;28.03;5.07;;;;;;;16.37;100.00;100162.50;5060660;28;20071;-54
2023/01/13 00:52:10;;;;;;;28.83;5.55;;;;;;;16.89;100.00;100166.63;5061918;28;20297;-50
2023/01/13 00:54:37;;;;;;;32.20;5.33;;;;;;;16.53;100.00;100171.59;5062973;28;20041;-52
2023/01/13 00:57:03;;;;;;;32.40;4.70;;;;;;;16.21;100.00;100162.28;5060024;28;20269;-54
2023/01/13 00:59:29;;;;;;;25.52;4.53;;;;;;;16.26;100.00;100166.94;5059380;28;20331;-52
2023/01/13 01:01:55;;;;;;;35.03;5.20;;;;;;;16.12;100.00;100163.81;5057492;28;20041;-54
2023/01/13 01:04:21;;;;;;;40.53;5.05;;;;;;;16.39;100.00;100166.59;5060456;28;20044;-55
2023/01/13 01:06:47;;;;;;;40.60;5.78;;;;;;;16.24;100.00;100169.09;5062338;28;20068;-56
2023/01/13 01:09:14;;;;;;;38.20;6.67;;;;;;;16.19;100.00;100169.81;5063064;28;20041;-56
2023/01/13 01:11:40;;;;;;;36.50;4.33;;;;;;;16.51;100.00;100154.84;5059058;28;20109;-55
2023/01/13 01:14:06;;;;;;;36.20;4.80;;;;;;;16.29;100.00;100148.38;5057668;28;20279;-52
2023/01/13 01:16:33;;;;;;;33.60;5.40;;;;;;;16.23;100.00;100148.56;5058734;28;20059;-56
2023/01/13 01:18:59;;;;;;;37.50;6.23;;;;;;;16.38;100.00;100146.06;5057995;28;20037;-54
2023/01/13 01:21:27;;;;;;;31.70;5.80;;;;;;;16.55;100.00;100142.47;5062450;28;20273;-52
2023/01/13 01:23:53;;;;;;;37.03;6.17;;;;;;;16.16;100.00;100135.25;5056792;28;20366;-56
2023/01/13 01:26:22;;;;;;;53.10;5.77;;;;;;;16.20;100.00;100133.69;5058616;28;20289;-54
2023/01/13 01:28:47;;;;;;;37.30;6.17;;;;;;;15.98;100.00;100137.19;5055439;28;20278;-56
2023/01/13 01:31:21;;;;;;;30.02;5.40;;;;;;;15.94;100.00;100129.84;5056597;28;20298;-54
2023/01/13 01:33:49;;;;;;;39.07;5.00;;;;;;;15.98;100.00;100147.16;5056763;28;20053;-52
2023/01/13 01:36:16;;;;;;;51.57;7.40;;;;;;;16.18;100.00;100125.88;5059595;28;20274;-53
2023/01/13 01:38:42;;;;;;;39.87;6.23;;;;;;;15.70;100.00;100148.91;5060394;28;20278;-53
2023/01/13 01:41:12;;;;;;;47.20;5.60;;;;;;;16.20;100.00;100139.91;5057328;28;20257;-53
2023/01/13 01:43:58;;;;;;;38.23;5.30;;;;;;;16.04;100.00;100146.16;5058665;28;20097;-56
2023/01/13 01:46:39;;;;;;;32.73;5.67;;;;;;;16.19;100.00;100143.69;5057272;28;20354;-54
2023/01/13 01:49:32;;;;;;;38.30;6.93;;;;;;;16.45;100.00;100138.59;5060443;28;20279;-54
2023/01/13 01:52:03;;;;;;;43.00;6.57;;;;;;;16.68;100.00;100131.28;5055992;28;20309;-51
2023/01/13 01:54:40;;;;;;;43.17;7.33;;;;;;;16.42;100.00;100130.19;5053350;28;20266;-54
2023/01/13 01:57:09;;;;;;;44.43;5.93;;;;;;;16.67;100.00;100132.34;5057484;28;20281;-53
2023/01/13 01:59:35;;;;;;;40.30;6.37;;;;;;;15.95;100.00;100147.66;5055192;28;20297;-54
2023/01/13 02:02:05;;;;;;;52.00;6.13;;;;;;;16.27;100.00;100149.69;5057124;28;20285;-52
2023/01/13 02:04:35;;;;;;;38.58;5.22;;;;;;;16.38;100.00;100147.94;5061326;28;20289;-50
2023/01/13 02:07:02;;;;;;;50.63;5.83;;;;;;;16.17;100.00;100151.22;5053616;28;20032;-55
2023/01/13 02:09:29;;;;;;;32.10;5.47;;;;;;;16.71;100.00;100165.88;5054495;28;20322;-54
2023/01/13 02:14:40;;;;;;;62.60;6.07;;;;;;;16.18;100.00;100146.59;5057869;28;20267;-54
2023/01/13 02:17:31;;;;;;;51.20;5.60;;;;;;;16.02;100.00;100148.28;5059944;28;20274;-54
2023/01/13 02:20:42;;;;;;;34.73;4.77;;;;;;;16.03;100.00;100149.94;5058992;28;20262;-54
2023/01/13 02:26:42;;;;;;;40.10;5.60;;;;;;;16.04;100.00;100140.78;5063646;28;20392;-54
2023/01/13 02:32:34;;;;;;;26.53;4.50;;;;;;;15.65;100.00;100141.53;5057974;28;20286;-50
2023/01/13 02:35:11;;;;;;;41.77;5.93;;;;;;;15.75;100.00;100132.78;5059085;28;20278;-54
2023/01/13 02:37:41;;;;;;;35.07;4.40;;;;;;;15.55;100.00;100115.25;5060761;28;20266;-53
2023/01/13 02:40:30;;;;;;;29.87;4.60;;;;;;;15.75;100.00;100122.00;5058940;28;20278;-54
2023/01/13 02:46:06;;;;;;;40.50;6.07;;;;;;;15.96;100.00;100098.06;5057535;28;20277;-55
2023/01/13 02:48:35;;;;;;;38.80;5.60;;;;;;;15.79;100.00;100077.31;5060435;28;20342;-53
2023/01/13 02:51:08;;;;;;;34.73;4.90;;;;;;;15.94;100.00;100089.41;5058092;28;20305;-54
2023/01/13 02:53:40;;;;;;;34.17;7.20;;;;;;;15.71;100.00;100083.13;5058872;28;20285;-54
2023/01/13 02:56:08;;;;;;;32.87;5.43;;;;;;;15.94;100.00;100082.13;5059554;28;20346;-50
2023/01/13 02:58:37;;;;;;;31.33;4.87;;;;;;;15.65;100.00;100079.56;5058654;28;20330;-56
2023/01/13 03:01:03;;;;;;;34.50;5.40;;;;;;;15.91;100.00;100075.38;5064350;28;20361;-52
2023/01/13 03:03:30;;;;;;;38.77;5.03;;;;;;;15.75;100.00;100085.06;5062865;28;20275;-52
2023/01/13 03:06:25;;;;;;;38.08;4.25;;;;;;;15.70;100.00;100082.31;5059517;28;20740;-55
2023/01/13 03:09:02;;;;;;;37.87;6.53;;;;;;;15.67;100.00;100092.75;5058117;28;20056;-53
2023/01/13 03:11:38;;;;;;;37.40;5.28;;;;;;;15.76;100.00;100088.59;5058696;28;20258;-51
2023/01/13 03:14:29;;;;;;;28.73;4.43;;;;;;;16.27;100.00;100082.25;5065477;28;20036;-54
2023/01/13 03:16:54;;;;;;;33.07;4.87;;;;;;;16.12;100.00;100072.09;5060906;28;20270;-52
2023/01/13 03:19:20;;;;;;;32.53;5.47;;;;;;;16.05;100.00;100069.59;5060183;28;20345;-56
2023/01/13 03:22:19;;;;;;;26.47;5.63;;;;;;;16.20;100.00;100064.38;5060447;28;20037;-53
2023/01/13 03:25:03;;;;;;;29.03;5.63;;;;;;;16.31;100.00;100062.63;5057242;28;20037;-55
2023/01/13 03:27:47;;;;;;;36.43;5.73;;;;;;;16.04;100.00;100087.66;5063083;28;20262;-49
2023/01/13 03:30:25;;;;;;;39.20;5.67;;;;;;;15.57;100.00;100088.88;5056106;28;20406;-52
2023/01/13 03:32:58;;;;;;;31.40;4.77;;;;;;;16.19;100.00;100064.63;5059436;28;20286;-49
2023/01/13 03:35:35;;;;;;;25.90;4.43;;;;;;;15.69;100.00;100106.84;5059580;28;20278;-54
2023/01/13 03:38:06;;;;;;;34.07;4.67;;;;;;;16.18;100.00;100085.41;5063221;28;20261;-53
2023/01/13 03:40:38;;;;;;;21.83;4.00;;;;;;;16.22;100.00;100090.28;5065196;28;20338;-52
2023/01/13 03:46:01;;;;;;;21.07;3.60;;;;;;;16.02;100.00;100084.38;5061042;28;20290;-52
2023/01/13 03:48:30;;;;;;;32.87;5.20;;;;;;;15.90;100.00;100076.41;5058537;28;20278;-50
2023/01/13 03:51:03;;;;;;;30.60;4.53;;;;;;;15.94;100.00;100065.13;5063327;28;20262;-50
2023/01/13 03:53:36;;;;;;;22.90;3.47;;;;;;;15.49;100.00;100073.94;5057324;28;20262;-51
2023/01/13 03:56:37;;;;;;;28.77;6.20;;;;;;;16.00;100.00;100075.72;5060171;28;20274;-53
2023/01/13 03:59:06;;;;;;;30.23;5.17;;;;;;;15.69;100.00;100075.28;5056356;28;20304;-52
2023/01/13 04:01:44;;;;;;;22.47;3.87;;;;;;;15.31;100.00;100072.31;5063549;28;20282;-50
2023/01/13 04:04:16;;;;;;;24.37;4.27;;;;;;;15.29;100.00;100070.94;5066839;28;20274;-52
2023/01/13 04:07:09;;;;;;;19.20;2.90;;;;;;;15.37;100.00;100075.09;5059911;28;20254;-53
2023/01/13 04:09:53;;;;;;;36.67;5.80;;;;;;;15.64;100.00;100077.91;5060192;28;20251;-53
2023/01/13 04:15:20;;;;;;;11.30;2.37;;;;;;;15.29;100.00;100085.22;5057379;28;20271;-55
2023/01/13 04:17:46;;;;;;;8.67;3.43;;;;;;;15.43;100.00;100101.03;5057818;28;20288;-54
2023/01/13 04:20:12;;;;;;;14.07;2.40;;;;;;;15.81;100.00;100091.34;5062560;28;20278;-51
2023/01/13 04:22:38;;;;;;;12.80;2.20;;;;;;;15.54;100.00;100105.53;5060073;28;20064;-55
2023/01/13 04:25:04;;;;;;;17.53;2.37;;;;;;;15.47;100.00;100121.06;5056542;28;20038;-52
2023/01/13 04:27:29;;;;;;;11.52;2.55;;;;;;;15.29;100.00;100103.25;5065960;28;20277;-55
2023/01/13 04:29:55;;;;;;;9.63;2.77;;;;;;;15.13;100.00;100102.19;5063682;28;20041;-54
2023/01/13 04:32:20;;;;;;;10.03;1.87;;;;;;;15.49;100.00;100098.19;5056279;28;20045;-54
2023/01/13 04:34:46;;;;;;;6.57;1.67;;;;;;;15.35;100.00;100104.97;5063189;28;20294;-55
2023/01/13 04:37:12;;;;;;;14.85;2.40;;;;;;;15.68;100.00;100094.41;5055353;28;20087;-53
2023/01/13 04:39:38;;;;;;;13.00;2.17;;;;;;;15.37;100.00;100099.34;5058313;28;20101;-54
2023/01/13 04:42:03;;;;;;;12.00;1.83;;;;;;;15.20;100.00;100108.22;5063379;28;20033;-55
2023/01/13 04:44:30;;;;;;;11.23;1.57;;;;;;;15.09;100.00;100083.00;5060514;28;20291;-50
2023/01/13 04:46:57;;;;;;;17.90;2.00;;;;;;;15.40;100.00;100083.50;5061059;28;20036;-55
2023/01/13 04:49:23;;;;;;;14.83;1.97;;;;;;;15.79;100.00;100093.50;5062444;28;20269;-51
2023/01/13 04:51:48;;;;;;;9.53;1.63;;;;;;;15.47;100.00;100094.13;5058240;28;20262;-54
2023/01/13 04:54:15;;;;;;;18.97;2.03;;;;;;;15.40;100.00;100088.06;5062230;28;20290;-52
2023/01/13 04:56:40;;;;;;;10.38;2.30;;;;;;;14.95;100.00;100081.69;5059151;28;20041;-52
2023/01/13 04:59:06;;;;;;;12.75;2.00;;;;;;;15.70;100.00;100082.31;5059654;28;20094;-53
2023/01/13 05:01:32;;;;;;;23.70;2.63;;;;;;;15.01;100.00;100092.31;5061664;28;20029;-55
2023/01/13 05:03:57;;;;;;;18.38;2.97;;;;;;;15.08;100.00;100115.56;5061077;28;20060;-51
2023/01/13 05:06:23;;;;;;;26.07;2.83;;;;;;;15.26;100.00;100093.78;5059093;28;20088;-56
2023/01/13 05:08:49;;;;;;;24.55;2.28;;;;;;;15.11;100.00;100090.84;5058510;28;20029;-54
2023/01/13 05:17:02;;;;;;;21.67;2.83;;;;;;;15.87;100.00;100105.72;5056160;28;20278;-55
2023/01/13 05:19:32;;;;;;;9.60;1.67;;;;;;;14.92;100.00;100101.84;5059361;28;20274;-55
2023/01/13 05:27:28;;;;;;;19.13;2.70;;;;;;;14.93;100.00;100110.75;5062445;28;20338;-56
2023/01/13 05:29:54;;;;;;;17.67;2.57;;;;;;;15.40;100.00;100104.22;5060975;28;20401;-54
2023/01/13 05:32:21;;;;;;;13.95;3.58;;;;;;;15.62;100.00;100120.47;5064529;28;20297;-55
2023/01/13 05:34:47;;;;;;;16.53;3.13;;;;;;;15.47;100.00;100121.06;5061332;28;20031;-56
2023/01/13 05:37:13;;;;;;;14.73;2.45;;;;;;;15.32;100.00;100135.09;5059740;28;20261;-56
2023/01/13 05:45:10;;;;;;;18.63;3.57;;;;;;;15.79;100.00;100131.22;5057834;28;20287;-54
2023/01/13 05:47:36;;;;;;;12.93;2.42;;;;;;;15.02;100.00;100114.66;5061496;28;20289;-56
2023/01/13 05:50:02;;;;;;;24.27;2.93;;;;;;;15.42;100.00;100112.88;5062078;28;20128;-55
2023/01/13 05:52:28;;;;;;;12.48;2.60;;;;;;;15.39;100.00;100102.59;5057521;28;20267;-56
2023/01/13 05:54:54;;;;;;;17.27;3.08;;;;;;;15.89;100.00;100128.69;5057021;28;20040;-56
2023/01/13 05:57:19;;;;;;;20.90;3.73;;;;;;;15.48;100.00;100128.09;5058999;28;20037;-55
2023/01/13 05:59:45;;;;;;;14.90;3.00;;;;;;;15.18;100.00;100121.13;5060850;28;20403;-52
2023/01/13 06:02:10;;;;;;;15.90;2.83;;;;;;;15.29;100.00;100125.63;5057291;28;20032;-55
2023/01/13 06:04:36;;;;;;;15.98;2.78;;;;;;;15.28;100.00;100128.56;5053269;28;20064;-51
2023/01/13 06:07:01;;;;;;;19.63;4.27;;;;;;;14.83;100.00;100154.44;5062447;28;20037;-50
2023/01/13 06:09:27;;;;;;;23.70;3.43;;;;;;;15.20;100.00;100111.75;5059302;28;20275;-50
2023/01/13 06:11:53;;;;;;;33.65;3.38;;;;;;;15.34;100.00;100111.44;5056875;28;20056;-52
2023/01/13 06:14:18;;;;;;;21.07;3.53;;;;;;;15.11;100.00;100120.47;5056936;28;20036;-54
2023/01/13 06:16:44;;;;;;;17.30;3.83;;;;;;;15.34;100.00;100101.47;5056380;28;20266;-55
2023/01/13 06:19:12;;;;;;;17.33;3.45;;;;;;;15.44;100.00;100119.66;5056576;28;20044;-52
2023/01/13 06:21:43;;;;;;;26.70;3.87;;;;;;;15.11;100.00;100118.59;5059163;28;20064;-53
2023/01/13 06:24:09;;;;;;;21.23;3.93;;;;;;;14.94;100.00;100109.69;5053331;28;20634;-50
2023/01/13 06:26:38;;;;;;;26.00;2.92;;;;;;;15.39;100.00;100124.97;5057764;28;20262;-53
2023/01/13 06:29:04;;;;;;;16.80;2.60;;;;;;;14.87;100.00;100115.22;5052846;28;20398;-53
2023/01/13 06:31:32;;;;;;;18.67;2.85;;;;;;;15.02;100.00;100125.44;5060327;28;20296;-55
2023/01/13 06:34:02;;;;;;;14.27;2.83;;;;;;;14.56;100.00;100144.22;5053170;28;20049;-52
2023/01/13 06:36:34;;;;;;;18.77;3.07;;;;;;;14.90;100.00;100112.03;5058604;28;20266;-54
2023/01/13 06:39:02;;;;;;;26.60;4.80;;;;;;;14.89;100.00;100118.47;5058791;28;20262;-50
2023/01/13 06:44:17;;;;;;;26.95;3.38;;;;;;;15.23;100.00;100131.16;5059667;28;20275;-52
2023/01/13 06:46:42;;;;;;;21.07;3.07;;;;;;;15.64;100.00;100137.22;5057704;28;20044;-55
2023/01/13 06:49:08;;;;;;;20.53;3.20;;;;;;;14.94;100.00;100148.19;5059989;28;20274;-55
2023/01/13 06:51:34;;;;;;;21.37;3.17;;;;;;;14.98;100.00;100124.28;5056306;28;20033;-54
2023/01/13 06:54:00;;;;;;;20.90;3.42;;;;;;;14.85;100.00;100120.81;5057427;28;20330;-55
2023/01/13 06:56:25;;;;;;;25.23;4.13;;;;;;;14.80;100.00;100136.09;5055028;28;20030;-52
2023/01/13 06:58:51;;;;;;;24.63;4.17;;;;;;;14.97;100.00;100112.69;5056474;28;20029;-54
2023/01/13 07:01:16;;;;;;;20.67;4.57;;;;;;;14.80;100.00;100103.78;5060144;28;20282;-51
2023/01/13 07:03:41;;;;;;;33.57;4.67;;;;;;;15.00;100.00;100152.63;5061096;28;20045;-53
2023/01/13 07:06:07;;;;;;;16.37;3.63;;;;;;;14.70;100.00;100150.13;5059401;28;20037;-52
2023/01/13 07:08:33;;;;;;;37.13;3.22;;;;;;;14.37;100.00;100144.38;5058458;28;20053;-50
2023/01/13 07:11:01;;;;;;;23.20;4.13;;;;;;;14.42;100.00;100131.03;5061392;28;20041;-56
2023/01/13 07:16:11;;;;;;;15.13;3.43;;;;;;;14.98;100.00;100156.59;5058874;28;20279;-53
2023/01/13 07:18:36;;;;;;;20.52;3.53;;;;;;;14.93;100.00;100149.22;5059694;28;20297;-51
2023/01/13 07:21:07;;;;;;;23.63;4.20;;;;;;;14.67;100.00;100140.66;5064417;28;20029;-53
2023/01/13 07:23:37;;;;;;;21.83;4.43;;;;;;;15.10;100.00;100135.78;5061649;28;20286;-52
2023/01/13 07:26:03;;;;;;;32.83;5.57;;;;;;;14.60;100.00;100142.69;5059394;28;20330;-53
2023/01/13 07:28:30;;;;;;;16.27;3.25;;;;;;;14.85;100.00;100126.22;5057888;28;20298;-55
2023/01/13 07:30:56;;;;;;;29.33;5.53;;;;;;;14.84;100.00;100156.06;5066742;28;20056;-57
2023/01/13 07:33:22;;;;;;;24.42;3.45;;;;;;;14.80;100.00;100133.41;5061924;28;20060;-56
2023/01/13 07:35:54;;;;;;;;;;;;;;;14.91;100.00;100141.41;5056591;28;20068;-54
2023/01/13 07:38:20;;;;;;;23.70;3.37;;;;;;;14.74;100.00;100141.34;5061593;28;19944;-56
2023/01/13 07:40:45;;;;;;;20.73;2.97;;;;;;;14.87;100.00;100134.84;5059238;28;20297;-52
2023/01/13 07:46:00;;;;;;;21.50;4.40;;;;;;;15.10;100.00;100156.53;5058058;28;20033;-54
2023/01/13 07:48:26;;;;;;;44.03;6.77;;;;;;;14.69;100.00;100162.75;5059089;28;20262;-52
2023/01/13 07:50:52;;;;;;;33.45;4.60;;;;;;;14.32;100.00;100165.81;5061232;28;20250;-55
2023/01/13 07:53:18;;;;;;;26.20;5.90;;;;;;;14.48;100.00;100158.84;5055605;28;20040;-52
2023/01/13 07:55:44;;;;;;;25.30;4.03;;;;;;;14.69;100.00;100186.19;5058531;28;20140;-53
2023/01/13 07:58:10;;;;;;;28.15;3.65;;;;;;;14.79;100.00;100177.53;5056334;28;20033;-51
2023/01/13 08:00:37;;;;;;;25.83;3.03;;;;;;;15.10;100.00;100159.22;5056101;28;20048;-51
2023/01/13 08:03:03;;;;;;;28.17;4.77;;;;;;;14.48;100.00;100180.38;5060071;28;20060;-55
2023/01/13 08:05:29;;;;;;;23.20;3.17;;;;;;;15.05;100.00;100168.03;5057674;28;20282;-56
2023/01/13 08:07:55;;;;;;;12.45;2.25;;;;;;;14.66;100.00;100165.13;5062548;28;20048;-53
2023/01/13 08:10:22;;;;;;;21.95;4.25;;;;;;;14.69;100.00;100181.59;5064856;28;20033;-56
2023/01/13 08:15:31;;;;;;;26.17;4.10;;;;;;;15.29;100.00;100173.28;5059545;28;20021;-54
2023/01/13 08:17:58;;;;;;;23.17;4.05;;;;;;;15.13;100.00;100164.13;5058935;28;20294;-55
2023/01/13 08:20:24;;;;;;;32.63;4.57;;;;;;;15.32;100.00;100189.78;5060478;28;20030;-55
2023/01/13 08:22:54;;;;;;;29.00;4.50;;;;;;;14.77;100.00;100200.09;5063179;28;20266;-55
2023/01/13 08:25:20;;;;;;;21.73;4.03;;;;;;;15.43;100.00;100195.34;5060939;28;20040;-54
2023/01/13 08:27:47;;;;;;;19.13;3.43;;;;;;;16.16;100.00;100206.22;5057959;28;20338;-54
2023/01/13 08:30:13;;;;;;;25.73;3.70;;;;;;;15.46;100.00;100233.41;5061717;28;20029;-55
2023/01/13 08:32:38;;;;;;;27.03;4.13;;;;;;;15.01;100.00;100208.09;5058672;28;20298;-52
2023/01/13 08:35:04;;;;;;;22.70;3.47;;;;;;;15.54;100.00;100207.94;5054595;28;20021;-53
2023/01/13 08:37:29;;;;;;;23.90;4.32;;;;;;;15.44;100.00;100211.28;5063675;28;20063;-55
2023/01/13 08:39:55;;;;;;;26.23;4.55;;;;;;;15.41;100.00;100221.72;5064015;28;20045;-55
2023/01/13 08:42:21;;;;;;;20.15;5.00;;;;;;;15.36;100.00;100192.81;5059508;28;20037;-55
2023/01/13 08:44:46;;;;;;;22.53;3.47;;;;;;;15.33;100.00;100234.53;5056047;28;20141;-53
2023/01/13 08:47:11;;;;;;;33.70;4.30;;;;;;;15.18;100.00;100205.44;5055607;28;20278;-53
2023/01/13 08:49:37;;;;;;;23.30;3.90;;;;;;;15.24;100.00;100252.16;5056091;28;20071;-52
2023/01/13 08:52:03;;;;;;;19.40;3.10;;;;;;;15.07;100.00;100192.03;5055779;28;20037;-50
2023/01/13 08:54:29;;;;;;;34.07;4.93;;;;;;;15.36;100.00;100205.47;5060775;28;20057;-53
2023/01/13 08:56:54;;;;;;;30.43;5.27;;;;;;;15.12;100.00;100208.28;5056674;28;20272;-54
2023/01/13 08:59:19;;;;;;;29.03;4.77;;;;;;;15.29;100.00;100211.81;5057974;28;20108;-52
2023/01/13 09:01:45;;;;;;;22.60;4.37;;;;;;;14.85;100.00;100235.78;5056935;28;20035;-54
2023/01/13 09:04:16;;;;;;;17.80;3.60;;;;;;;15.59;100.00;100215.31;5055087;28;20085;-54
2023/01/13 09:06:42;;;;;;;24.53;3.50;;;;;;;15.63;100.00;100217.25;5057175;28;20033;-50
2023/01/13 09:09:08;;;;;;;22.02;3.70;;;;;;;15.78;100.00;100262.50;5057687;28;20258;-54
2023/01/13 09:14:25;;;;;;;31.67;4.53;;;;;;;15.32;100.00;100254.44;5055515;28;20040;-55
2023/01/13 09:16:50;;;;;;;17.80;3.30;;;;;;;15.86;100.00;100237.00;5062024;28;20277;-52
2023/01/13 09:19:16;;;;;;;24.33;3.90;;;;;;;15.82;100.00;100235.88;5062181;28;20309;-53
2023/01/13 09:21:41;;;;;;;27.33;4.70;;;;;;;15.11;100.00;100245.19;5061138;28;20029;-55
2023/01/13 09:24:07;;;;;;;17.37;2.93;;;;;;;14.89;100.00;100255.78;5052205;28;20033;-52
2023/01/13 09:26:33;;;;;;;36.53;5.13;;;;;;;15.15;100.00;100242.81;5057565;28;20037;-53
2023/01/13 09:28:58;;;;;;;32.70;4.55;;;;;;;15.15;100.00;100249.03;5052581;28;20298;-53
2023/01/13 09:31:24;;;;;;;38.78;4.38;;;;;;;14.86;100.00;100269.72;5060037;28;20055;-52
2023/01/13 09:36:42;;;;;;;38.33;4.83;;;;;;;14.55;100.00;100255.59;5035531;28;20310;-53
2023/01/13 09:39:07;;;;;;;47.10;5.00;;;;;;;14.78;100.00;100260.13;5059885;28;20290;-56
2023/01/13 09:44:47;;;;;;;37.95;5.28;;;;;;;13.71;100.00;100303.91;5059557;28;20092;-55
2023/01/13 09:47:31;;;;;;;31.43;4.43;;;;;;;14.15;100.00;100273.25;5059077;28;20039;-53
2023/01/13 09:50:06;;;;;;;38.80;4.90;;;;;;;13.91;100.00;100274.06;5059285;28;20277;-57
2023/01/13 09:52:33;;;;;;;39.43;5.37;;;;;;;14.56;100.00;100268.00;5058640;28;20037;-60
2023/01/13 09:55:04;;;;;;;41.88;7.13;;;;;;;14.12;100.00;100279.94;5057296;28;20269;-59
2023/01/13 09:57:35;;;;;;;42.93;5.40;;;;;;;13.94;100.00;100299.63;5060728;28;20048;-61
2023/01/13 10:00:01;;;;;;;38.87;5.37;;;;;;;14.24;100.00;100281.78;5058596;28;20345;-61
2023/01/13 10:02:38;;;;;;;36.63;5.97;;;;;;;14.06;100.00;100299.66;5055916;28;20255;-59
2023/01/13 10:05:24;;;;;;;45.10;5.68;;;;;;;14.91;100.00;100318.25;5057732;28;20044;-60
2023/01/13 10:08:01;;;;;;;44.10;5.53;;;;;;;14.72;100.00;100293.38;5059004;28;20124;-58
2023/01/13 10:10:54;;;;;;;;;;;;;;;14.29;100.00;100306.09;5060169;28;20052;-59
2023/01/13 10:13:26;;;;;;;33.45;4.80;;;;;;;14.15;100.00;100300.97;5060217;28;19920;-58
2023/01/13 10:16:03;;;;;;;35.30;5.45;;;;;;;14.35;100.00;100299.81;5056615;28;20038;-55
2023/01/13 10:18:51;;;;;;;30.40;6.15;;;;;;;14.72;100.00;100310.34;5058880;28;20083;-58
2023/01/13 10:21:20;;;;;;;35.33;5.73;;;;;;;15.22;100.00;100312.69;5064974;28;20097;-57
2023/01/13 10:24:18;;;;;;;48.93;5.93;;;;;;;14.43;100.00;100306.72;5055482;28;20358;-58
2023/01/13 10:26:53;;;;;;;26.87;5.07;;;;;;;14.26;100.00;100314.63;5059615;28;20271;-54
2023/01/13 10:29:26;;;;;;;30.03;4.53;;;;;;;14.15;100.00;100361.97;5059832;28;20258;-55
2023/01/13 10:31:53;;;;;;;26.33;4.83;;;;;;;14.77;100.00;100302.38;5056681;28;20286;-54
2023/01/13 10:34:20;;;;;;;38.30;5.50;;;;;;;15.19;100.00;100303.19;5060638;28;20262;-53
2023/01/13 10:37:08;;;;;;;45.35;5.35;;;;;;;14.54;100.00;100311.25;5059238;28;20282;-57
2023/01/13 10:39:45;;;;;;;37.47;6.13;;;;;;;15.13;100.00;100323.03;5061624;28;20064;-56
2023/01/13 10:42:17;;;;;;;34.75;4.45;;;;;;;14.89;100.00;100331.16;5063820;28;20289;-54
2023/01/13 10:44:58;;;;;;;33.53;4.33;;;;;;;14.72;100.00;100320.28;5062268;28;20040;-57
2023/01/13 10:47:34;;;;;;;39.50;5.67;;;;;;;14.89;100.00;100315.84;5063422;28;20266;-57
2023/01/13 10:50:11;;;;;;;29.07;4.43;;;;;;;15.52;100.00;100323.25;5061580;28;20277;-54
2023/01/13 10:52:55;;;;;;;28.07;4.23;;;;;;;14.85;100.00;100330.78;5061234;28;20278;-54
2023/01/13 10:55:24;;;;;;;41.27;5.00;;;;;;;15.39;100.00;100339.69;5061064;28;20274;-57
2023/01/13 10:57:49;;;;;;;63.90;5.37;;;;;;;15.27;100.00;100335.16;5057928;28;20274;-54
2023/01/13 11:00:35;;;;;;;29.30;6.00;;;;;;;14.49;100.00;100344.25;5063567;28;20262;-56
2023/01/13 11:03:19;;;;;;;34.03;5.87;;;;;;;14.52;100.00;100342.97;5062895;28;20306;-54
2023/01/13 11:05:58;;;;;;;39.57;5.83;;;;;;;15.19;100.00;100330.13;5064692;28;20292;-53
2023/01/13 11:08:49;;;;;;;31.27;4.50;;;;;;;15.25;100.00;100348.06;5063631;28;20258;-54
2023/01/13 11:11:41;;;;;;;36.33;5.20;;;;;;;15.16;100.00;100342.22;5061234;28;21005;-54
2023/01/13 11:14:40;;;;;;;46.90;5.60;;;;;;;15.23;100.00;100352.88;5066468;28;20266;-55
2023/01/13 11:17:28;;;;;;;30.20;3.63;;;;;;;14.97;100.00;100360.38;5060446;28;20285;-54
2023/01/13 11:20:05;;;;;;;33.60;4.88;;;;;;;14.68;100.00;100368.34;5058391;28;20297;-52
2023/01/13 11:22:37;;;;;;;39.30;6.23;;;;;;;15.19;100.00;100357.91;5059071;28;20032;-56
2023/01/13 11:25:09;;;;;;;43.03;6.93;;;;;;;15.46;100.00;100357.34;5059487;28;20293;-57
2023/01/13 11:27:40;;;;;;;34.40;4.27;;;;;;;14.96;100.00;100352.56;5059375;28;20276;-52
2023/01/13 11:30:12;;;;;;;38.83;6.03;;;;;;;15.27;100.00;100364.78;5064796;28;20266;-54
2023/01/13 11:33:00;;;;;;;36.23;5.43;;;;;;;15.42;100.00;100371.53;5061454;28;20930;-51
2023/01/13 11:35:27;;;;;;;36.90;5.23;;;;;;;15.02;100.00;100368.59;5059962;28;20275;-56
2023/01/13 11:38:00;;;;;;;26.13;4.20;;;;;;;15.35;100.00;100371.69;5060009;28;20304;-53
2023/01/13 11:40:39;;;;;;;30.93;4.40;;;;;;;15.15;100.00;100369.38;5062738;28;20286;-55
2023/01/13 11:43:17;;;;;;;37.47;5.10;;;;;;;15.36;100.00;100367.94;5062545;28;20301;-53
2023/01/13 11:45:52;;;;;;;37.77;6.87;;;;;;;15.53;100.00;100362.59;5061704;28;20318;-53
2023/01/13 11:48:22;;;;;;;26.93;3.90;;;;;;;14.76;100.00;100386.88;5058322;28;20274;-54
2023/01/13 11:50:55;;;;;;;23.67;4.43;;;;;;;15.61;100.00;100380.28;5061910;28;20293;-56
2023/01/13 11:53:53;;;;;;;36.40;5.60;;;;;;;14.68;100.00;100365.66;5060539;28;20326;-55
2023/01/13 11:56:30;;;;;;;32.33;5.50;;;;;;;15.50;100.00;100390.03;5058965;28;20303;-53
2023/01/13 11:59:35;;;;;;;27.53;4.07;;;;;;;15.72;100.00;100397.47;5060081;28;20029;-58
2023/01/13 12:02:16;;;;;;;32.83;3.77;;;;;;;15.69;100.00;100398.75;5061808;28;20383;-54
2023/01/13 12:05:03;;;;;;;20.07;4.07;;;;;;;15.36;100.00;100385.97;5059909;28;20287;-55
2023/01/13 12:07:57;;;;;;;30.33;5.03;;;;;;;15.37;100.00;100391.13;5054764;28;20270;-55
2023/01/13 12:10:53;;;;;;;31.93;3.67;;;;;;;15.71;100.00;100409.31;5061531;28;20037;-54
2023/01/13 12:13:43;;;;;;;40.03;6.00;;;;;;;15.53;100.00;100415.66;5056308;28;20274;-51
2023/01/13 12:16:18;;;;;;;26.90;4.53;;;;;;;15.54;100.00;100406.53;5062987;28;20267;-55
2023/01/13 12:18:46;;;;;;;33.63;4.93;;;;;;;16.01;100.00;100419.03;5054805;28;20274;-57
2023/01/13 12:21:19;;;;;;;37.90;5.73;;;;;;;16.15;100.00;100406.91;5061986;28;20332;-51
2023/01/13 12:23:57;;;;;;;28.00;4.97;;;;;;;15.35;100.00;100436.34;5060944;28;20290;-58